createdAt,value
2022-12-13T00:01:52.003Z,77.23
2022-12-13T00:04:22.090Z,92.10
2022-12-13T00:06:51.292Z,79.53
2022-12-13T00:09:20.865Z,81.87
2022-12-13T00:11:52.398Z,68.93
2022-12-13T00:14:20.713Z,64.30
2022-12-13T00:16:50.680Z,59.67
2022-12-13T00:19:20.280Z,55.27
2022-12-13T00:21:48.765Z,60.90
2022-12-13T00:24:17.397Z,94.53
2022-12-13T00:26:45.851Z,72.13
2022-12-13T00:29:16.069Z,55.53
2022-12-13T00:31:59.549Z,57.03
2022-12-13T00:34:28.764Z,59.20
2022-12-13T00:36:59.251Z,63.27
2022-12-13T00:39:28.383Z,58.53
2022-12-13T00:41:56.779Z,83.33
2022-12-13T00:44:27.155Z,56.43
2022-12-13T00:46:56.691Z,68.77
2022-12-13T00:49:25.339Z,45.77
2022-12-13T00:51:53.822Z,50.57
2022-12-13T00:54:22.041Z,52.47
2022-12-13T00:56:51.307Z,67.80
2022-12-13T00:59:19.569Z,64.47
2022-12-13T01:01:49.310Z,58.47
2022-12-13T01:04:17.635Z,59.40
2022-12-13T01:06:50.000Z,54.67
2022-12-13T01:09:20.190Z,68.50
2022-12-13T01:11:49.627Z,68.30
2022-12-13T01:14:19.324Z,53.13
2022-12-13T01:16:49.758Z,56.83
2022-12-13T01:19:18.111Z,64.17
2022-12-13T01:21:46.402Z,59.77
2022-12-13T01:24:15.331Z,59.90
2022-12-13T01:26:43.705Z,61.93
2022-12-13T01:29:11.965Z,63.80
2022-12-13T01:31:42.028Z,157.07
2022-12-13T01:34:13.818Z,51.30
2022-12-13T01:36:43.943Z,50.67
2022-12-13T01:39:15.529Z,56.93
2022-12-13T01:41:45.601Z,58.40
2022-12-13T01:44:51.211Z,44.87
2022-12-13T01:47:25.529Z,51.23
2022-12-13T01:49:58.309Z,84.20
2022-12-13T01:52:31.573Z,46.63
2022-12-13T01:55:03.528Z,82.00
2022-12-13T01:57:34.725Z,75.47
2022-12-13T02:00:03.632Z,60.57
2022-12-13T02:02:31.940Z,65.73
2022-12-13T02:05:08.220Z,48.63
2022-12-13T02:07:39.454Z,62.73
2022-12-13T02:10:09.619Z,48.33
2022-12-13T02:12:39.234Z,50.03
2022-12-13T02:15:11.801Z,54.57
2022-12-13T02:17:57.755Z,45.40
2022-12-13T02:20:58.676Z,41.13
2022-12-13T02:23:54.892Z,39.60
2022-12-13T02:26:53.243Z,46.83
2022-12-13T02:29:54.548Z,42.13
2022-12-13T02:32:31.343Z,42.67
2022-12-13T02:35:06.382Z,43.40
2022-12-13T02:37:46.969Z,34.80
2022-12-13T02:40:23.181Z,61.33
2022-12-13T02:42:59.454Z,47.50
2022-12-13T02:45:32.280Z,52.70
2022-12-13T02:48:04.832Z,41.63
2022-12-13T02:50:34.634Z,43.67
2022-12-13T02:53:06.414Z,59.10
2022-12-13T02:55:37.866Z,48.03
2022-12-13T02:58:06.142Z,42.63
2022-12-13T03:00:42.394Z,53.53
2022-12-13T03:03:20.861Z,44.63
2022-12-13T03:06:10.557Z,38.17
2022-12-13T03:08:56.207Z,40.40
2022-12-13T03:11:44.039Z,43.13
2022-12-13T03:14:14.692Z,40.30
2022-12-13T03:16:45.277Z,48.67
2022-12-13T03:19:15.292Z,41.90
2022-12-13T03:21:48.214Z,40.07
2022-12-13T03:24:18.749Z,37.43
2022-12-13T03:26:48.482Z,43.97
2022-12-13T03:29:24.763Z,51.50
2022-12-13T03:31:53.571Z,36.70
2022-12-13T03:34:23.633Z,42.07
2022-12-13T03:36:52.519Z,38.28
2022-12-13T03:39:21.472Z,36.43
2022-12-13T03:41:50.433Z,37.43
2022-12-13T03:44:18.915Z,43.10
2022-12-13T03:46:47.276Z,45.23
2022-12-13T03:49:17.564Z,44.33
2022-12-13T03:51:48.125Z,37.30
2022-12-13T03:54:16.724Z,44.53
2022-12-13T03:56:44.894Z,44.17
2022-12-13T03:59:13.376Z,48.67
2022-12-13T04:01:42.095Z,44.50
2022-12-13T04:04:10.574Z,43.97
2022-12-13T04:06:39.487Z,38.73
2022-12-13T04:09:09.229Z,38.67
2022-12-13T04:11:55.231Z,45.97
2022-12-13T04:14:23.522Z,36.70
2022-12-13T04:16:52.748Z,45.97
2022-12-13T04:19:22.678Z,44.00
2022-12-13T04:21:52.427Z,31.77
2022-12-13T04:24:22.106Z,33.77
2022-12-13T04:27:00.832Z,35.28
2022-12-13T04:29:34.257Z,38.75
2022-12-13T04:32:03.451Z,51.58
2022-12-13T04:34:36.917Z,56.97
2022-12-13T04:37:06.283Z,38.50
2022-12-13T04:39:36.090Z,31.90
2022-12-13T04:42:04.867Z,36.00
2022-12-13T04:44:36.994Z,38.90
2022-12-13T04:47:06.224Z,40.30
2022-12-13T04:49:34.987Z,47.77
2022-12-13T04:52:03.730Z,36.97
2022-12-13T04:54:36.514Z,40.00
2022-12-13T04:57:08.889Z,47.37
2022-12-13T04:59:37.842Z,34.05
2022-12-13T05:02:06.981Z,60.10
2022-12-13T05:04:35.545Z,38.70
2022-12-13T05:07:04.591Z,18.52
2022-12-13T05:09:33.243Z,48.80
2022-12-13T05:12:02.126Z,39.92
2022-12-13T05:14:32.344Z,35.45
2022-12-13T05:17:00.982Z,37.60
2022-12-13T05:19:30.393Z,38.75
2022-12-13T05:22:01.507Z,44.58
2022-12-13T05:24:31.101Z,38.07
2022-12-13T05:27:00.036Z,39.20
2022-12-13T05:29:28.600Z,35.50
2022-12-13T05:31:58.639Z,44.15
2022-12-13T05:34:27.320Z,48.15
2022-12-13T05:36:55.738Z,66.57
2022-12-13T05:39:28.362Z,50.20
2022-12-13T05:42:02.049Z,32.80
2022-12-13T05:44:31.287Z,37.47
2022-12-13T05:47:02.259Z,34.57
2022-12-13T05:49:31.340Z,37.43
2022-12-13T05:51:59.888Z,30.33
2022-12-13T05:54:28.265Z,32.10
2022-12-13T05:56:56.963Z,26.63
2022-12-13T05:59:25.230Z,34.97
2022-12-13T06:01:53.989Z,37.28
2022-12-13T06:04:24.109Z,35.97
2022-12-13T06:06:52.976Z,34.63
2022-12-13T06:09:21.986Z,27.73
2022-12-13T06:11:50.599Z,38.47
2022-12-13T06:14:22.456Z,34.73
2022-12-13T06:16:52.827Z,33.35
2022-12-13T06:19:21.890Z,35.97
2022-12-13T06:21:52.459Z,33.20
2022-12-13T06:24:22.824Z,34.10
2022-12-13T06:26:52.213Z,38.33
2022-12-13T06:29:25.509Z,33.72
2022-12-13T06:32:01.180Z,30.30
2022-12-13T06:34:32.679Z,31.40
2022-12-13T06:37:02.894Z,32.07
2022-12-13T06:39:33.174Z,28.43
2022-12-13T06:42:03.703Z,35.65
2022-12-13T06:44:32.124Z,35.63
2022-12-13T06:47:11.839Z,33.55
2022-12-13T06:49:44.428Z,31.07
2022-12-13T06:52:15.502Z,41.25
2022-12-13T06:54:44.954Z,32.03
2022-12-13T06:57:13.940Z,32.03
2022-12-13T06:59:42.910Z,41.30
2022-12-13T07:02:24.407Z,38.65
2022-12-13T07:04:54.317Z,13.83
2022-12-13T07:07:25.069Z,28.27
2022-12-13T07:09:53.472Z,31.17
2022-12-13T07:12:22.032Z,35.23
2022-12-13T07:14:50.425Z,39.03
2022-12-13T07:17:32.698Z,38.70
2022-12-13T07:20:04.709Z,30.58
2022-12-13T07:22:35.659Z,37.10
2022-12-13T07:25:06.253Z,38.47
2022-12-13T07:27:35.305Z,40.07
2022-12-13T07:30:04.093Z,36.20
2022-12-13T07:32:32.496Z,29.87
2022-12-13T07:35:00.850Z,39.37
2022-12-13T07:37:31.044Z,28.40
2022-12-13T07:40:04.648Z,40.80
2022-12-13T07:42:33.366Z,40.83
2022-12-13T07:45:01.579Z,35.33
2022-12-13T07:47:31.255Z,36.07
2022-12-13T07:49:59.738Z,41.53
2022-12-13T07:52:30.041Z,30.05
2022-12-13T07:54:58.366Z,43.67
2022-12-13T07:57:28.570Z,38.90
2022-12-13T07:59:56.827Z,48.58
2022-12-13T08:02:25.861Z,39.03
2022-12-13T08:04:55.400Z,42.10
2022-12-13T08:07:24.230Z,51.90
2022-12-13T08:09:53.360Z,37.20
2022-12-13T08:12:22.599Z,43.25
2022-12-13T08:14:53.522Z,49.30
2022-12-13T08:17:22.446Z,46.30
2022-12-13T08:19:50.852Z,39.47
2022-12-13T08:22:24.269Z,61.88
2022-12-13T08:24:53.070Z,64.00
2022-12-13T08:27:21.557Z,54.63
2022-12-13T08:29:49.821Z,61.93
2022-12-13T08:32:19.623Z,58.97
2022-12-13T08:34:48.036Z,64.27
2022-12-13T08:37:16.865Z,48.77
2022-12-13T08:39:45.915Z,53.30
2022-12-13T08:42:19.315Z,52.38
2022-12-13T08:44:50.120Z,42.47
2022-12-13T08:47:24.051Z,48.45
2022-12-13T08:50:02.848Z,54.37
2022-12-13T08:52:40.149Z,41.65
2022-12-13T08:55:10.541Z,42.40
2022-12-13T08:57:39.834Z,43.93
2022-12-13T09:00:11.581Z,38.20
2022-12-13T09:02:41.621Z,44.13
2022-12-13T09:05:11.412Z,41.35
2022-12-13T09:07:41.205Z,37.75
2022-12-13T09:10:25.767Z,44.42
2022-12-13T09:13:01.452Z,41.47
2022-12-13T09:15:34.452Z,31.10
2022-12-13T09:18:05.696Z,36.33
2022-12-13T09:20:40.693Z,38.53
2022-12-13T09:23:13.515Z,37.90
2022-12-13T09:25:46.028Z,36.23
2022-12-13T09:28:21.775Z,32.77
2022-12-13T09:30:50.397Z,36.27
2022-12-13T09:33:30.812Z,32.93
2022-12-13T09:36:01.422Z,29.07
2022-12-13T09:38:30.992Z,31.83
2022-12-13T09:41:19.433Z,30.70
2022-12-13T09:43:51.476Z,36.50
2022-12-13T09:46:34.640Z,33.83
2022-12-13T09:49:22.991Z,30.33
2022-12-13T09:52:21.439Z,32.23
2022-12-13T09:54:48.779Z,33.30
2022-12-13T09:57:31.133Z,35.47
2022-12-13T10:00:02.322Z,36.57
2022-12-13T10:02:33.377Z,33.67
2022-12-13T10:05:21.695Z,30.93
2022-12-13T10:07:54.370Z,34.33
2022-12-13T10:10:23.110Z,30.90
2022-12-13T10:12:57.901Z,33.73
2022-12-13T10:15:27.331Z,34.33
2022-12-13T10:17:56.705Z,35.70
2022-12-13T10:20:30.137Z,34.17
2022-12-13T10:25:51.726Z,35.47
2022-12-13T10:28:27.429Z,33.80
2022-12-13T10:30:57.408Z,35.17
2022-12-13T10:33:28.443Z,40.17
2022-12-13T10:36:11.171Z,31.87
2022-12-13T10:38:42.476Z,36.67
2022-12-13T10:41:31.840Z,40.77
2022-12-13T10:44:24.282Z,41.40
2022-12-13T10:47:01.415Z,38.10
2022-12-13T10:49:36.919Z,34.57
2022-12-13T10:52:07.218Z,33.33
2022-12-13T10:54:48.542Z,36.87
2022-12-13T10:57:18.155Z,44.93
2022-12-13T10:59:48.739Z,41.00
2022-12-13T11:02:35.843Z,35.17
2022-12-13T11:05:26.327Z,40.10
2022-12-13T11:08:00.788Z,43.97
2022-12-13T11:10:31.208Z,48.27
2022-12-13T11:13:04.967Z,40.03
2022-12-13T11:15:37.338Z,47.47
2022-12-13T11:18:09.087Z,47.93
2022-12-13T11:20:39.845Z,42.90
2022-12-13T11:23:23.478Z,39.63
2022-12-13T11:25:57.245Z,45.83
2022-12-13T11:28:45.686Z,45.30
2022-12-13T11:31:23.224Z,46.67
2022-12-13T11:34:01.447Z,50.53
2022-12-13T11:36:39.895Z,42.27
2022-12-13T11:39:19.432Z,42.33
2022-12-13T11:41:55.597Z,47.40
2022-12-13T11:44:34.688Z,41.87
2022-12-13T11:47:06.848Z,44.00
2022-12-13T11:49:41.001Z,44.33
2022-12-13T11:52:16.768Z,42.77
2022-12-13T11:54:53.251Z,41.23
2022-12-13T11:57:33.002Z,45.93
2022-12-13T12:03:46.716Z,39.93
2022-12-13T12:06:21.918Z,39.83
2022-12-13T12:08:58.127Z,39.53
2022-12-13T12:11:33.787Z,36.27
2022-12-13T12:14:10.635Z,41.37
2022-12-13T12:16:42.309Z,34.40
2022-12-13T12:19:14.782Z,38.90
2022-12-13T12:22:13.756Z,41.03
2022-12-13T12:25:02.994Z,39.70
2022-12-13T12:27:42.104Z,29.77
2022-12-13T12:30:23.281Z,35.70
2022-12-13T12:33:01.905Z,37.47
2022-12-13T12:35:47.883Z,34.90
2022-12-13T12:38:32.113Z,44.00
2022-12-13T12:41:22.009Z,36.60
2022-12-13T12:43:57.489Z,41.63
2022-12-13T12:47:09.063Z,39.33
2022-12-13T12:50:03.972Z,44.37
2022-12-13T12:52:42.822Z,37.67
2022-12-13T12:55:18.357Z,40.40
2022-12-13T12:57:57.141Z,36.37
2022-12-13T13:00:41.608Z,34.63
2022-12-13T13:03:22.324Z,30.63
2022-12-13T13:06:02.065Z,33.50
2022-12-13T13:08:37.172Z,38.10
2022-12-13T13:11:24.637Z,38.53
2022-12-13T13:14:04.681Z,36.03
2022-12-13T13:16:38.549Z,42.97
2022-12-13T13:19:07.701Z,39.00
2022-12-13T13:22:01.400Z,33.80
2022-12-13T13:24:32.640Z,34.57
2022-12-13T13:27:21.337Z,35.87
2022-12-13T13:29:49.835Z,41.43
2022-12-13T13:35:58.618Z,36.37
2022-12-13T13:38:50.825Z,42.50
2022-12-13T13:41:41.685Z,42.23
2022-12-13T13:44:48.621Z,36.57
2022-12-13T13:47:29.862Z,35.47
2022-12-13T13:50:04.011Z,40.57
2022-12-13T13:52:46.561Z,32.63
2022-12-13T13:55:50.085Z,35.97
2022-12-13T13:58:57.684Z,37.00
2022-12-13T14:01:59.719Z,40.37
2022-12-13T14:04:59.425Z,37.57
2022-12-13T14:08:25.375Z,36.50
2022-12-13T14:11:21.230Z,39.77
2022-12-13T14:14:38.578Z,37.90
2022-12-13T14:17:54.235Z,39.17
2022-12-13T14:20:47.362Z,35.10
2022-12-13T14:23:26.011Z,35.90
2022-12-13T14:26:25.425Z,34.00
2022-12-13T14:28:57.700Z,38.60
2022-12-13T14:31:29.517Z,33.03
2022-12-13T14:34:00.784Z,37.40
2022-12-13T14:36:32.426Z,35.47
2022-12-13T14:39:02.557Z,35.97
2022-12-13T14:41:32.755Z,35.30
2022-12-13T14:44:16.910Z,50.67
2022-12-13T14:46:53.321Z,40.20
2022-12-13T14:49:23.824Z,33.47
2022-12-13T14:52:01.176Z,37.70
2022-12-13T14:54:33.809Z,40.37
2022-12-13T14:57:05.601Z,35.20
2022-12-13T14:59:34.594Z,37.83
2022-12-13T15:02:05.340Z,35.83
2022-12-13T15:04:36.199Z,38.83
2022-12-13T15:07:08.232Z,34.10
2022-12-13T15:09:39.316Z,32.43
2022-12-13T15:12:24.526Z,35.77
2022-12-13T15:14:59.925Z,36.53
2022-12-13T15:17:32.762Z,38.40
2022-12-13T15:20:01.817Z,37.90
2022-12-13T15:22:30.319Z,33.50
2022-12-13T15:24:59.333Z,37.53
2022-12-13T15:27:29.381Z,40.40
2022-12-13T15:29:58.147Z,38.87
2022-12-13T15:32:26.493Z,39.63
2022-12-13T15:34:54.953Z,36.30
2022-12-13T15:37:30.228Z,36.43
2022-12-13T15:40:02.229Z,36.37
2022-12-13T15:42:37.020Z,36.50
2022-12-13T15:45:08.455Z,35.93
2022-12-13T15:47:37.071Z,40.53
2022-12-13T15:50:08.780Z,40.47
2022-12-13T15:52:40.586Z,38.57
2022-12-13T15:55:28.747Z,37.83
2022-12-13T15:58:00.441Z,44.23
2022-12-13T16:00:32.552Z,50.43
2022-12-13T16:03:09.120Z,67.63
2022-12-13T16:05:42.716Z,45.43
2022-12-13T16:08:26.967Z,36.47
2022-12-13T16:10:56.971Z,46.07
2022-12-13T16:13:29.619Z,42.27
2022-12-13T16:16:09.614Z,36.10
2022-12-13T16:18:47.405Z,41.50
2022-12-13T16:21:18.808Z,43.20
2022-12-13T16:23:49.297Z,42.07
2022-12-13T16:26:26.554Z,35.97
2022-12-13T16:28:58.847Z,39.40
2022-12-13T16:31:31.645Z,36.83
2022-12-13T16:34:00.685Z,38.83
2022-12-13T16:36:29.980Z,35.77
2022-12-13T16:38:59.509Z,41.80
2022-12-13T16:41:29.892Z,40.37
2022-12-13T16:44:03.424Z,50.57
2022-12-13T16:47:12.821Z,47.07
2022-12-13T16:49:24.562Z,44.33
2022-12-13T16:51:53.985Z,43.83
2022-12-13T16:54:24.488Z,50.00
2022-12-13T16:56:54.592Z,43.70
2022-12-13T16:59:26.412Z,51.90
2022-12-13T17:01:56.061Z,45.07
2022-12-13T17:04:27.522Z,52.97
2022-12-13T17:06:57.021Z,55.57
2022-12-13T17:09:26.499Z,57.93
2022-12-13T17:11:55.505Z,50.63
2022-12-13T17:14:26.162Z,54.87
2022-12-13T17:16:55.687Z,61.50
2022-12-13T17:19:24.795Z,58.80
2022-12-13T17:21:54.043Z,54.33
2022-12-13T17:24:22.890Z,53.97
2022-12-13T17:26:55.296Z,48.40
2022-12-13T17:29:26.905Z,48.90
2022-12-13T17:31:55.857Z,53.20
2022-12-13T17:34:24.692Z,46.30
2022-12-13T17:36:54.099Z,48.47
2022-12-13T17:39:23.358Z,50.43
2022-12-13T17:41:54.762Z,51.77
2022-12-13T17:44:27.220Z,50.33
2022-12-13T17:46:56.358Z,54.37
2022-12-13T17:49:26.971Z,49.27
2022-12-13T17:51:56.027Z,49.27
2022-12-13T17:54:26.021Z,40.90
2022-12-13T17:56:55.433Z,44.03
2022-12-13T17:59:27.464Z,45.20
2022-12-13T18:01:57.424Z,45.03
2022-12-13T18:04:26.567Z,36.93
2022-12-13T18:06:56.941Z,40.30
2022-12-13T18:09:25.184Z,34.80
2022-12-13T18:11:53.505Z,37.30
2022-12-13T18:14:21.908Z,34.97
2022-12-13T18:16:53.244Z,36.60
2022-12-13T18:19:23.241Z,33.07
2022-12-13T18:21:52.995Z,37.37
2022-12-13T18:24:23.539Z,33.60
2022-12-13T18:26:52.738Z,36.80
2022-12-13T18:29:21.191Z,37.20
2022-12-13T18:31:49.720Z,38.10
2022-12-13T18:34:20.585Z,34.70
2022-12-13T18:36:48.994Z,34.13
2022-12-13T18:39:17.483Z,39.33
2022-12-13T18:41:45.894Z,65.27
2022-12-13T18:44:14.386Z,40.60
2022-12-13T18:46:46.080Z,43.37
2022-12-13T18:49:14.853Z,40.37
2022-12-13T18:51:44.969Z,45.50
2022-12-13T18:54:14.177Z,39.13
2022-12-13T18:56:42.722Z,36.07
2022-12-13T18:59:12.630Z,37.83
2022-12-13T19:01:42.238Z,33.90
2022-12-13T19:04:10.659Z,39.60
2022-12-13T19:06:39.199Z,42.13
2022-12-13T19:09:09.654Z,41.97
2022-12-13T19:11:38.098Z,41.77
2022-12-13T19:14:06.989Z,46.17
2022-12-13T19:16:35.418Z,42.57
2022-12-13T19:19:03.923Z,40.13
2022-12-13T19:21:32.533Z,38.37
2022-12-13T19:24:01.628Z,37.57
2022-12-13T19:26:31.751Z,35.13
2022-12-13T19:29:00.960Z,39.63
2022-12-13T19:31:32.164Z,34.97
2022-12-13T19:34:02.640Z,39.17
2022-12-13T19:36:31.735Z,37.60
2022-12-13T19:39:00.609Z,34.83
2022-12-13T19:41:32.423Z,41.53
2022-12-13T19:44:04.600Z,41.57
2022-12-13T19:46:34.090Z,38.17
2022-12-13T19:49:03.330Z,40.30
2022-12-13T19:51:37.409Z,38.23
2022-12-13T19:54:07.913Z,61.57
2022-12-13T19:56:38.526Z,33.97
2022-12-13T19:59:06.883Z,38.20
2022-12-13T20:01:35.710Z,43.07
2022-12-13T20:04:05.592Z,37.40
2022-12-13T20:06:34.426Z,39.23
2022-12-13T20:09:03.053Z,32.43
2022-12-13T20:11:32.831Z,30.90
2022-12-13T20:14:03.605Z,32.97
2022-12-13T20:16:36.036Z,34.30
2022-12-13T20:19:05.747Z,49.90
2022-12-13T20:21:36.089Z,44.97
2022-12-13T20:24:07.263Z,39.87
2022-12-13T20:26:36.909Z,40.37
2022-12-13T20:29:07.489Z,43.03
2022-12-13T20:31:39.438Z,42.10
2022-12-13T20:34:14.210Z,39.97
2022-12-13T20:36:42.954Z,38.80
2022-12-13T20:39:14.546Z,37.23
2022-12-13T20:41:42.913Z,41.83
2022-12-13T20:44:14.873Z,38.30
2022-12-13T20:46:43.335Z,37.93
2022-12-13T20:49:11.853Z,35.67
2022-12-13T20:51:42.483Z,34.30
2022-12-13T20:54:11.242Z,29.83
2022-12-13T20:56:40.344Z,30.07
2022-12-13T20:59:10.431Z,31.10
2022-12-13T21:01:41.698Z,32.17
2022-12-13T21:04:11.377Z,30.40
2022-12-13T21:06:41.781Z,30.10
2022-12-13T21:09:12.121Z,30.73
2022-12-13T21:11:41.917Z,33.40
2022-12-13T21:14:18.758Z,33.37
2022-12-13T21:20:31.693Z,34.40
2022-12-13T21:23:00.083Z,40.83
2022-12-13T21:25:28.287Z,29.53
2022-12-13T21:27:56.666Z,32.67
2022-12-13T21:30:24.861Z,30.93
2022-12-13T21:32:53.163Z,22.43
2022-12-13T21:35:21.563Z,27.37
2022-12-13T21:37:51.324Z,32.27
2022-12-13T21:40:19.683Z,35.70
2022-12-13T21:42:48.932Z,31.20
2022-12-13T21:45:17.694Z,36.00
2022-12-13T21:47:45.946Z,33.00
2022-12-13T21:50:14.304Z,28.30
2022-12-13T21:52:48.030Z,33.83
2022-12-13T21:58:27.783Z,21.10
2022-12-13T22:00:56.306Z,21.07
2022-12-13T22:03:24.551Z,23.30
2022-12-13T22:05:52.744Z,24.27
2022-12-13T22:08:21.101Z,24.20
2022-12-13T22:11:08.430Z,25.50
2022-12-13T22:13:37.031Z,30.60
2022-12-13T22:16:05.503Z,27.73
2022-12-13T22:18:33.792Z,26.03
2022-12-13T22:21:02.530Z,30.43
2022-12-13T22:23:30.764Z,30.43
2022-12-13T22:26:00.408Z,33.87
2022-12-13T22:28:31.469Z,35.20
2022-12-13T22:31:00.088Z,33.03
2022-12-13T22:33:28.761Z,30.23
2022-12-13T22:35:57.124Z,27.93
2022-12-13T22:38:25.576Z,32.60
2022-12-13T22:40:54.179Z,35.83
2022-12-13T22:43:23.979Z,28.17
2022-12-13T22:45:52.343Z,31.73
2022-12-13T22:48:21.030Z,30.77
2022-12-13T22:50:49.404Z,28.37
2022-12-13T22:53:17.655Z,34.97
2022-12-13T22:55:45.964Z,30.07
2022-12-13T22:58:15.610Z,29.50
2022-12-13T23:00:45.335Z,28.53
2022-12-13T23:03:13.843Z,27.53
2022-12-13T23:05:42.144Z,28.07
2022-12-13T23:08:10.337Z,31.90
2022-12-13T23:10:56.130Z,28.13
2022-12-13T23:13:24.354Z,29.83
2022-12-13T23:15:53.960Z,31.63
2022-12-13T23:18:22.219Z,30.27
2022-12-13T23:20:50.466Z,33.27
2022-12-13T23:23:18.735Z,31.50
2022-12-13T23:25:48.893Z,27.13
2022-12-13T23:28:17.378Z,30.30
2022-12-13T23:30:45.678Z,31.30
2022-12-13T23:33:15.398Z,30.03
2022-12-13T23:35:43.620Z,32.90
2022-12-13T23:38:12.194Z,34.67
2022-12-13T23:40:40.656Z,33.27
2022-12-13T23:43:09.562Z,27.93
2022-12-13T23:45:37.819Z,32.37
2022-12-13T23:48:06.662Z,31.60
2022-12-13T23:50:36.337Z,30.67
2022-12-13T23:53:04.923Z,28.50
2022-12-13T23:55:36.910Z,25.67
2022-12-13T23:58:06.315Z,28.00
